sensor_id;sensor_type;location;lat;lon;timestamp;temperature;humidity
2639;DHT22;1329;51.384;7.122;2023-07-31T00:00:42;18.20;99.90
2639;DHT22;1329;51.384;7.122;2023-07-31T00:03:09;18.30;99.90
2639;DHT22;1329;51.384;7.122;2023-07-31T00:05:38;18.20;99.90
2639;DHT22;1329;51.384;7.122;2023-07-31T00:08:05;18.30;99.90
2639;DHT22;1329;51.384;7.122;2023-07-31T00:10:32;18.20;99.90
2639;DHT22;1329;51.384;7.122;2023-07-31T00:12:59;18.20;99.90
2639;DHT22;1329;51.384;7.122;2023-07-31T00:15:26;18.30;99.90
2639;DHT22;1329;51.384;7.122;2023-07-31T00:17:53;18.20;99.90
2639;DHT22;1329;51.384;7.122;2023-07-31T00:20:21;18.20;99.90
2639;DHT22;1329;51.384;7.122;2023-07-31T00:22:50;18.20;99.90
2639;DHT22;1329;51.384;7.122;2023-07-31T00:25:16;18.20;99.90
2639;DHT22;1329;51.384;7.122;2023-07-31T00:27:44;18.20;99.90
2639;DHT22;1329;51.384;7.122;2023-07-31T00:30:11;18.20;99.90
2639;DHT22;1329;51.384;7.122;2023-07-31T00:32:39;18.20;99.90
2639;DHT22;1329;51.384;7.122;2023-07-31T00:35:06;18.20;99.90
2639;DHT22;1329;51.384;7.122;2023-07-31T00:37:33;18.20;99.90
2639;DHT22;1329;51.384;7.122;2023-07-31T00:40:01;18.20;99.90
2639;DHT22;1329;51.384;7.122;2023-07-31T00:42:29;18.20;99.90
2639;DHT22;1329;51.384;7.122;2023-07-31T00:44:56;18.20;99.90
2639;DHT22;1329;51.384;7.122;2023-07-31T00:47:23;18.20;99.90
2639;DHT22;1329;51.384;7.122;2023-07-31T00:49:50;18.20;99.90
2639;DHT22;1329;51.384;7.122;2023-07-31T00:52:18;18.20;99.90
2639;DHT22;1329;51.384;7.122;2023-07-31T00:54:45;18.30;99.90
2639;DHT22;1329;51.384;7.122;2023-07-31T00:57:13;18.20;99.90
2639;DHT22;1329;51.384;7.122;2023-07-31T00:59:40;18.20;99.90
2639;DHT22;1329;51.384;7.122;2023-07-31T01:02:07;18.20;99.90
2639;DHT22;1329;51.384;7.122;2023-07-31T01:04:34;18.20;99.90
2639;DHT22;1329;51.384;7.122;2023-07-31T01:07:06;18.20;99.90
2639;DHT22;1329;51.384;7.122;2023-07-31T01:09:44;18.30;99.90
2639;DHT22;1329;51.384;7.122;2023-07-31T01:12:17;18.30;99.90
2639;DHT22;1329;51.384;7.122;2023-07-31T01:14:52;18.30;99.90
2639;DHT22;1329;51.384;7.122;2023-07-31T01:17:29;18.30;99.90
2639;DHT22;1329;51.384;7.122;2023-07-31T01:19:59;18.30;99.90
2639;DHT22;1329;51.384;7.122;2023-07-31T01:22:38;18.30;99.90
2639;DHT22;1329;51.384;7.122;2023-07-31T01:25:28;18.30;99.90
2639;DHT22;1329;51.384;7.122;2023-07-31T01:28:05;18.30;99.90
2639;DHT22;1329;51.384;7.122;2023-07-31T01:30:40;18.30;99.90
2639;DHT22;1329;51.384;7.122;2023-07-31T01:33:08;18.30;99.90
2639;DHT22;1329;51.384;7.122;2023-07-31T01:35:36;18.30;99.90
2639;DHT22;1329;51.384;7.122;2023-07-31T01:38:04;18.30;99.90
2639;DHT22;1329;51.384;7.122;2023-07-31T01:40:31;18.30;99.90
2639;DHT22;1329;51.384;7.122;2023-07-31T01:42:58;18.30;99.90
2639;DHT22;1329;51.384;7.122;2023-07-31T01:45:26;18.30;99.90
2639;DHT22;1329;51.384;7.122;2023-07-31T01:47:53;18.30;99.90
2639;DHT22;1329;51.384;7.122;2023-07-31T01:50:20;18.30;99.90
2639;DHT22;1329;51.384;7.122;2023-07-31T01:52:47;18.30;99.90
2639;DHT22;1329;51.384;7.122;2023-07-31T01:55:14;18.30;99.90
2639;DHT22;1329;51.384;7.122;2023-07-31T01:57:41;18.30;99.90
2639;DHT22;1329;51.384;7.122;2023-07-31T02:00:08;18.30;99.90
2639;DHT22;1329;51.384;7.122;2023-07-31T02:02:40;18.30;99.90
2639;DHT22;1329;51.384;7.122;2023-07-31T02:05:07;18.30;99.90
2639;DHT22;1329;51.384;7.122;2023-07-31T02:07:34;18.30;99.90
2639;DHT22;1329;51.384;7.122;2023-07-31T02:10:02;18.30;99.90
2639;DHT22;1329;51.384;7.122;2023-07-31T02:12:29;18.30;99.90
2639;DHT22;1329;51.384;7.122;2023-07-31T02:14:57;18.30;99.90
2639;DHT22;1329;51.384;7.122;2023-07-31T02:17:24;18.30;99.90
2639;DHT22;1329;51.384;7.122;2023-07-31T02:19:53;18.30;99.90
2639;DHT22;1329;51.384;7.122;2023-07-31T02:22:20;18.30;99.90
2639;DHT22;1329;51.384;7.122;2023-07-31T02:24:47;18.30;99.90
2639;DHT22;1329;51.384;7.122;2023-07-31T02:27:14;18.30;99.90
2639;DHT22;1329;51.384;7.122;2023-07-31T02:29:41;18.30;99.90
2639;DHT22;1329;51.384;7.122;2023-07-31T02:32:07;18.30;99.90
2639;DHT22;1329;51.384;7.122;2023-07-31T02:34:34;18.30;99.90
2639;DHT22;1329;51.384;7.122;2023-07-31T02:37:03;18.30;99.90
2639;DHT22;1329;51.384;7.122;2023-07-31T02:39:30;18.30;99.90
2639;DHT22;1329;51.384;7.122;2023-07-31T02:41:57;18.30;99.90
2639;DHT22;1329;51.384;7.122;2023-07-31T02:44:24;18.30;99.90
2639;DHT22;1329;51.384;7.122;2023-07-31T02:46:51;18.30;99.90
2639;DHT22;1329;51.384;7.122;2023-07-31T02:49:18;18.30;99.90
2639;DHT22;1329;51.384;7.122;2023-07-31T02:51:45;18.30;99.90
2639;DHT22;1329;51.384;7.122;2023-07-31T02:54:13;18.30;99.90
2639;DHT22;1329;51.384;7.122;2023-07-31T02:56:40;18.30;99.90
2639;DHT22;1329;51.384;7.122;2023-07-31T02:59:07;18.30;99.90
2639;DHT22;1329;51.384;7.122;2023-07-31T03:01:34;18.30;99.90
2639;DHT22;1329;51.384;7.122;2023-07-31T03:04:00;18.30;99.90
2639;DHT22;1329;51.384;7.122;2023-07-31T03:06:27;18.30;99.90
2639;DHT22;1329;51.384;7.122;2023-07-31T03:08:54;18.30;99.90
2639;DHT22;1329;51.384;7.122;2023-07-31T03:11:22;18.30;99.90
2639;DHT22;1329;51.384;7.122;2023-07-31T03:13:49;18.30;99.90
2639;DHT22;1329;51.384;7.122;2023-07-31T03:16:16;18.30;99.90
2639;DHT22;1329;51.384;7.122;2023-07-31T03:18:44;18.30;99.90
2639;DHT22;1329;51.384;7.122;2023-07-31T03:21:12;18.40;99.90
2639;DHT22;1329;51.384;7.122;2023-07-31T03:23:39;18.30;99.90
2639;DHT22;1329;51.384;7.122;2023-07-31T03:26:07;18.30;99.90
2639;DHT22;1329;51.384;7.122;2023-07-31T03:28:36;18.40;99.90
2639;DHT22;1329;51.384;7.122;2023-07-31T03:31:03;18.40;99.90
2639;DHT22;1329;51.384;7.122;2023-07-31T03:33:30;18.40;99.90
2639;DHT22;1329;51.384;7.122;2023-07-31T03:35:57;18.40;99.90
2639;DHT22;1329;51.384;7.122;2023-07-31T03:38:24;18.40;99.90
2639;DHT22;1329;51.384;7.122;2023-07-31T03:40:50;18.40;99.90
2639;DHT22;1329;51.384;7.122;2023-07-31T03:43:17;18.40;99.90
2639;DHT22;1329;51.384;7.122;2023-07-31T03:45:46;18.40;99.90
2639;DHT22;1329;51.384;7.122;2023-07-31T03:48:13;18.40;99.90
2639;DHT22;1329;51.384;7.122;2023-07-31T03:50:40;18.50;99.90
2639;DHT22;1329;51.384;7.122;2023-07-31T03:53:07;18.40;99.90
2639;DHT22;1329;51.384;7.122;2023-07-31T03:55:34;18.40;99.90
2639;DHT22;1329;51.384;7.122;2023-07-31T03:58:01;18.50;99.90
2639;DHT22;1329;51.384;7.122;2023-07-31T04:00:28;18.50;99.90
2639;DHT22;1329;51.384;7.122;2023-07-31T04:02:56;18.50;99.90
2639;DHT22;1329;51.384;7.122;2023-07-31T04:05:23;18.50;99.90
2639;DHT22;1329;51.384;7.122;2023-07-31T04:07:50;18.50;99.90
2639;DHT22;1329;51.384;7.122;2023-07-31T04:10:17;18.50;99.90
2639;DHT22;1329;51.384;7.122;2023-07-31T04:12:44;18.50;99.90
2639;DHT22;1329;51.384;7.122;2023-07-31T04:15:11;18.60;99.90
2639;DHT22;1329;51.384;7.122;2023-07-31T04:17:38;18.60;99.90
2639;DHT22;1329;51.384;7.122;2023-07-31T04:20:07;18.60;99.90
2639;DHT22;1329;51.384;7.122;2023-07-31T04:22:34;18.60;99.90
2639;DHT22;1329;51.384;7.122;2023-07-31T04:25:01;18.60;99.90
2639;DHT22;1329;51.384;7.122;2023-07-31T04:27:28;18.60;99.90
2639;DHT22;1329;51.384;7.122;2023-07-31T04:29:55;18.60;99.90
2639;DHT22;1329;51.384;7.122;2023-07-31T04:32:22;18.70;99.90
2639;DHT22;1329;51.384;7.122;2023-07-31T04:34:49;18.70;99.90
2639;DHT22;1329;51.384;7.122;2023-07-31T04:37:17;18.70;99.90
2639;DHT22;1329;51.384;7.122;2023-07-31T04:39:44;18.70;99.90
2639;DHT22;1329;51.384;7.122;2023-07-31T04:42:11;18.70;99.90
2639;DHT22;1329;51.384;7.122;2023-07-31T04:44:38;18.70;99.90
2639;DHT22;1329;51.384;7.122;2023-07-31T04:47:05;18.70;99.90
2639;DHT22;1329;51.384;7.122;2023-07-31T04:49:32;18.70;99.90
2639;DHT22;1329;51.384;7.122;2023-07-31T04:51:59;18.70;99.90
2639;DHT22;1329;51.384;7.122;2023-07-31T04:54:27;18.70;99.90
2639;DHT22;1329;51.384;7.122;2023-07-31T04:56:54;18.70;99.90
2639;DHT22;1329;51.384;7.122;2023-07-31T04:59:21;18.70;99.90
2639;DHT22;1329;51.384;7.122;2023-07-31T05:01:48;18.70;99.90
2639;DHT22;1329;51.384;7.122;2023-07-31T05:04:18;18.70;99.90
2639;DHT22;1329;51.384;7.122;2023-07-31T05:06:45;18.70;99.90
2639;DHT22;1329;51.384;7.122;2023-07-31T05:09:12;18.70;99.90
2639;DHT22;1329;51.384;7.122;2023-07-31T05:11:40;18.70;99.90
2639;DHT22;1329;51.384;7.122;2023-07-31T05:14:08;18.70;99.90
2639;DHT22;1329;51.384;7.122;2023-07-31T05:16:35;18.70;99.90
2639;DHT22;1329;51.384;7.122;2023-07-31T05:19:02;18.70;99.90
2639;DHT22;1329;51.384;7.122;2023-07-31T05:21:29;18.80;99.90
2639;DHT22;1329;51.384;7.122;2023-07-31T05:23:56;18.80;99.90
2639;DHT22;1329;51.384;7.122;2023-07-31T05:26:23;18.80;99.90
2639;DHT22;1329;51.384;7.122;2023-07-31T05:28:51;18.90;99.90
2639;DHT22;1329;51.384;7.122;2023-07-31T05:31:18;18.90;99.90
2639;DHT22;1329;51.384;7.122;2023-07-31T05:33:46;18.90;99.90
2639;DHT22;1329;51.384;7.122;2023-07-31T05:36:13;18.90;99.90
2639;DHT22;1329;51.384;7.122;2023-07-31T05:38:40;18.90;99.90
2639;DHT22;1329;51.384;7.122;2023-07-31T05:41:07;19.00;99.90
2639;DHT22;1329;51.384;7.122;2023-07-31T05:43:34;19.00;99.90
2639;DHT22;1329;51.384;7.122;2023-07-31T05:46:03;19.00;99.90
2639;DHT22;1329;51.384;7.122;2023-07-31T05:48:30;19.00;99.90
2639;DHT22;1329;51.384;7.122;2023-07-31T05:50:57;19.00;99.90
2639;DHT22;1329;51.384;7.122;2023-07-31T05:53:24;19.00;99.90
2639;DHT22;1329;51.384;7.122;2023-07-31T05:55:51;19.00;99.90
2639;DHT22;1329;51.384;7.122;2023-07-31T05:58:17;18.90;99.90
2639;DHT22;1329;51.384;7.122;2023-07-31T06:00:44;19.00;99.90
2639;DHT22;1329;51.384;7.122;2023-07-31T06:03:13;19.00;99.90
2639;DHT22;1329;51.384;7.122;2023-07-31T06:05:40;19.00;99.90
2639;DHT22;1329;51.384;7.122;2023-07-31T06:08:07;19.00;99.90
2639;DHT22;1329;51.384;7.122;2023-07-31T06:10:33;19.00;99.90
2639;DHT22;1329;51.384;7.122;2023-07-31T06:13:01;19.00;99.90
2639;DHT22;1329;51.384;7.122;2023-07-31T06:15:28;19.00;99.90
2639;DHT22;1329;51.384;7.122;2023-07-31T06:17:55;19.10;99.90
2639;DHT22;1329;51.384;7.122;2023-07-31T06:20:24;19.10;99.90
2639;DHT22;1329;51.384;7.122;2023-07-31T06:22:51;19.10;99.90
2639;DHT22;1329;51.384;7.122;2023-07-31T06:25:18;19.10;99.90
2639;DHT22;1329;51.384;7.122;2023-07-31T06:27:45;19.10;99.90
2639;DHT22;1329;51.384;7.122;2023-07-31T06:30:12;19.20;99.90
2639;DHT22;1329;51.384;7.122;2023-07-31T06:32:39;19.20;99.90
2639;DHT22;1329;51.384;7.122;2023-07-31T06:35:07;19.20;99.90
2639;DHT22;1329;51.384;7.122;2023-07-31T06:37:36;19.20;99.90
2639;DHT22;1329;51.384;7.122;2023-07-31T06:40:06;19.20;99.90
2639;DHT22;1329;51.384;7.122;2023-07-31T06:42:34;19.10;99.90
2639;DHT22;1329;51.384;7.122;2023-07-31T06:45:01;19.20;99.90
2639;DHT22;1329;51.384;7.122;2023-07-31T06:47:28;19.10;99.90
2639;DHT22;1329;51.384;7.122;2023-07-31T06:49:56;19.10;99.90
2639;DHT22;1329;51.384;7.122;2023-07-31T06:52:22;19.10;99.90
2639;DHT22;1329;51.384;7.122;2023-07-31T06:55:03;19.10;99.90
2639;DHT22;1329;51.384;7.122;2023-07-31T06:57:30;19.10;99.90
2639;DHT22;1329;51.384;7.122;2023-07-31T06:59:58;19.10;99.90
2639;DHT22;1329;51.384;7.122;2023-07-31T07:02:25;19.10;99.90
2639;DHT22;1329;51.384;7.122;2023-07-31T07:04:52;19.00;99.90
2639;DHT22;1329;51.384;7.122;2023-07-31T07:07:19;19.00;99.90
2639;DHT22;1329;51.384;7.122;2023-07-31T07:09:46;19.00;99.90
2639;DHT22;1329;51.384;7.122;2023-07-31T07:12:14;19.00;99.90
2639;DHT22;1329;51.384;7.122;2023-07-31T07:14:41;18.90;99.90
2639;DHT22;1329;51.384;7.122;2023-07-31T07:17:08;19.00;99.90
2639;DHT22;1329;51.384;7.122;2023-07-31T07:19:35;19.00;99.90
2639;DHT22;1329;51.384;7.122;2023-07-31T07:22:02;19.00;99.90
2639;DHT22;1329;51.384;7.122;2023-07-31T07:24:29;19.00;99.90
2639;DHT22;1329;51.384;7.122;2023-07-31T07:26:56;19.00;99.90
2639;DHT22;1329;51.384;7.122;2023-07-31T07:29:24;19.00;99.90
2639;DHT22;1329;51.384;7.122;2023-07-31T07:31:51;18.90;99.90
2639;DHT22;1329;51.384;7.122;2023-07-31T07:34:18;18.90;99.90
2639;DHT22;1329;51.384;7.122;2023-07-31T07:36:45;18.90;99.90
2639;DHT22;1329;51.384;7.122;2023-07-31T07:39:12;18.90;99.90
2639;DHT22;1329;51.384;7.122;2023-07-31T07:41:39;18.80;99.90
2639;DHT22;1329;51.384;7.122;2023-07-31T07:44:07;18.80;99.90
2639;DHT22;1329;51.384;7.122;2023-07-31T07:46:35;18.80;99.90
2639;DHT22;1329;51.384;7.122;2023-07-31T07:49:02;18.70;99.90
2639;DHT22;1329;51.384;7.122;2023-07-31T07:51:29;18.70;99.90
2639;DHT22;1329;51.384;7.122;2023-07-31T07:53:57;18.70;99.90
2639;DHT22;1329;51.384;7.122;2023-07-31T07:56:25;18.70;99.90
2639;DHT22;1329;51.384;7.122;2023-07-31T07:58:52;18.70;99.90
2639;DHT22;1329;51.384;7.122;2023-07-31T08:01:19;18.70;99.90
2639;DHT22;1329;51.384;7.122;2023-07-31T08:03:48;18.70;99.90
2639;DHT22;1329;51.384;7.122;2023-07-31T08:06:15;18.70;99.90
2639;DHT22;1329;51.384;7.122;2023-07-31T08:08:42;18.70;99.90
2639;DHT22;1329;51.384;7.122;2023-07-31T08:11:09;18.70;99.90
2639;DHT22;1329;51.384;7.122;2023-07-31T08:13:36;18.80;99.90
2639;DHT22;1329;51.384;7.122;2023-07-31T08:16:03;18.70;99.90
2639;DHT22;1329;51.384;7.122;2023-07-31T08:18:31;18.70;99.90
2639;DHT22;1329;51.384;7.122;2023-07-31T08:21:01;18.70;99.90
2639;DHT22;1329;51.384;7.122;2023-07-31T08:23:28;18.70;99.90
2639;DHT22;1329;51.384;7.122;2023-07-31T08:25:55;18.80;99.90
2639;DHT22;1329;51.384;7.122;2023-07-31T08:28:22;18.80;99.90
2639;DHT22;1329;51.384;7.122;2023-07-31T08:30:48;18.80;99.90
2639;DHT22;1329;51.384;7.122;2023-07-31T08:33:16;18.80;99.90
2639;DHT22;1329;51.384;7.122;2023-07-31T08:35:43;18.80;99.90
2639;DHT22;1329;51.384;7.122;2023-07-31T08:38:12;18.90;99.90
2639;DHT22;1329;51.384;7.122;2023-07-31T08:40:39;18.90;99.90
2639;DHT22;1329;51.384;7.122;2023-07-31T08:43:08;18.90;99.90
2639;DHT22;1329;51.384;7.122;2023-07-31T08:45:35;18.90;99.90
2639;DHT22;1329;51.384;7.122;2023-07-31T08:48:04;18.90;99.90
2639;DHT22;1329;51.384;7.122;2023-07-31T08:50:31;18.90;99.90
2639;DHT22;1329;51.384;7.122;2023-07-31T08:52:58;18.90;99.90
2639;DHT22;1329;51.384;7.122;2023-07-31T08:55:27;18.90;99.90
2639;DHT22;1329;51.384;7.122;2023-07-31T08:57:55;18.90;99.90
2639;DHT22;1329;51.384;7.122;2023-07-31T09:00:23;18.90;99.90
2639;DHT22;1329;51.384;7.122;2023-07-31T09:02:55;18.90;99.90
2639;DHT22;1329;51.384;7.122;2023-07-31T09:05:26;18.80;99.90
2639;DHT22;1329;51.384;7.122;2023-07-31T09:07:54;18.80;99.90
2639;DHT22;1329;51.384;7.122;2023-07-31T09:10:22;18.80;99.90
2639;DHT22;1329;51.384;7.122;2023-07-31T09:12:52;18.80;99.90
2639;DHT22;1329;51.384;7.122;2023-07-31T09:15:19;18.80;99.90
2639;DHT22;1329;51.384;7.122;2023-07-31T09:17:47;18.90;99.90
2639;DHT22;1329;51.384;7.122;2023-07-31T09:20:15;18.90;99.90
2639;DHT22;1329;51.384;7.122;2023-07-31T09:22:43;18.90;99.90
2639;DHT22;1329;51.384;7.122;2023-07-31T09:25:16;18.90;99.90
2639;DHT22;1329;51.384;7.122;2023-07-31T09:27:48;18.80;99.90
2639;DHT22;1329;51.384;7.122;2023-07-31T09:30:18;18.80;99.90
2639;DHT22;1329;51.384;7.122;2023-07-31T09:32:46;18.90;99.90
2639;DHT22;1329;51.384;7.122;2023-07-31T09:35:18;18.90;99.90
2639;DHT22;1329;51.384;7.122;2023-07-31T09:37:50;18.90;99.90
2639;DHT22;1329;51.384;7.122;2023-07-31T09:40:31;18.90;99.90
2639;DHT22;1329;51.384;7.122;2023-07-31T09:42:59;18.90;99.90
2639;DHT22;1329;51.384;7.122;2023-07-31T09:45:29;18.90;99.90
2639;DHT22;1329;51.384;7.122;2023-07-31T09:47:56;18.90;99.90
2639;DHT22;1329;51.384;7.122;2023-07-31T09:50:24;18.90;99.90
2639;DHT22;1329;51.384;7.122;2023-07-31T09:52:55;18.90;99.90
2639;DHT22;1329;51.384;7.122;2023-07-31T09:55:22;19.00;99.90
2639;DHT22;1329;51.384;7.122;2023-07-31T09:57:49;19.00;99.90
2639;DHT22;1329;51.384;7.122;2023-07-31T10:00:18;19.00;99.90
2639;DHT22;1329;51.384;7.122;2023-07-31T10:02:49;19.10;99.90
2639;DHT22;1329;51.384;7.122;2023-07-31T10:05:19;19.10;99.90
2639;DHT22;1329;51.384;7.122;2023-07-31T10:07:53;19.10;99.90
2639;DHT22;1329;51.384;7.122;2023-07-31T10:10:22;19.10;99.90
2639;DHT22;1329;51.384;7.122;2023-07-31T10:12:50;19.10;99.90
2639;DHT22;1329;51.384;7.122;2023-07-31T10:15:19;19.20;99.90
2639;DHT22;1329;51.384;7.122;2023-07-31T10:17:48;19.20;99.90
2639;DHT22;1329;51.384;7.122;2023-07-31T10:20:16;19.20;99.90
2639;DHT22;1329;51.384;7.122;2023-07-31T10:22:44;19.20;99.90
2639;DHT22;1329;51.384;7.122;2023-07-31T10:25:12;19.30;99.90
2639;DHT22;1329;51.384;7.122;2023-07-31T10:27:39;19.30;99.90
2639;DHT22;1329;51.384;7.122;2023-07-31T10:30:11;19.30;99.90
2639;DHT22;1329;51.384;7.122;2023-07-31T10:32:41;19.30;99.90
2639;DHT22;1329;51.384;7.122;2023-07-31T10:35:10;19.30;99.90
2639;DHT22;1329;51.384;7.122;2023-07-31T10:37:39;19.30;99.90
2639;DHT22;1329;51.384;7.122;2023-07-31T10:40:11;19.30;99.90
2639;DHT22;1329;51.384;7.122;2023-07-31T10:42:46;19.20;99.90
2639;DHT22;1329;51.384;7.122;2023-07-31T10:45:23;19.20;99.90
2639;DHT22;1329;51.384;7.122;2023-07-31T10:47:58;19.20;99.90
2639;DHT22;1329;51.384;7.122;2023-07-31T10:50:29;19.20;99.90
2639;DHT22;1329;51.384;7.122;2023-07-31T10:52:58;19.20;99.90
2639;DHT22;1329;51.384;7.122;2023-07-31T10:55:31;19.10;99.90
2639;DHT22;1329;51.384;7.122;2023-07-31T10:58:06;19.10;99.90
2639;DHT22;1329;51.384;7.122;2023-07-31T11:00:37;19.10;99.90
2639;DHT22;1329;51.384;7.122;2023-07-31T11:03:06;19.20;99.90
2639;DHT22;1329;51.384;7.122;2023-07-31T11:06:01;19.10;99.90
2639;DHT22;1329;51.384;7.122;2023-07-31T11:08:30;19.20;99.90
2639;DHT22;1329;51.384;7.122;2023-07-31T11:11:08;19.20;99.90
2639;DHT22;1329;51.384;7.122;2023-07-31T11:13:41;19.20;99.90
2639;DHT22;1329;51.384;7.122;2023-07-31T11:16:10;19.20;99.90
2639;DHT22;1329;51.384;7.122;2023-07-31T11:18:39;19.30;99.90
2639;DHT22;1329;51.384;7.122;2023-07-31T11:21:08;19.30;99.90
2639;DHT22;1329;51.384;7.122;2023-07-31T11:23:38;19.40;99.90
2639;DHT22;1329;51.384;7.122;2023-07-31T11:26:06;19.40;99.90
2639;DHT22;1329;51.384;7.122;2023-07-31T11:28:35;19.50;99.90
2639;DHT22;1329;51.384;7.122;2023-07-31T11:31:02;19.50;99.90
2639;DHT22;1329;51.384;7.122;2023-07-31T11:33:30;19.50;99.90
2639;DHT22;1329;51.384;7.122;2023-07-31T11:35:57;19.60;99.90
2639;DHT22;1329;51.384;7.122;2023-07-31T11:38:27;19.60;99.90
2639;DHT22;1329;51.384;7.122;2023-07-31T11:40:57;19.70;99.90
2639;DHT22;1329;51.384;7.122;2023-07-31T11:43:25;19.70;99.90
2639;DHT22;1329;51.384;7.122;2023-07-31T11:45:54;19.70;99.90
2639;DHT22;1329;51.384;7.122;2023-07-31T11:48:23;19.70;99.90
2639;DHT22;1329;51.384;7.122;2023-07-31T11:50:53;19.80;99.90
2639;DHT22;1329;51.384;7.122;2023-07-31T11:53:25;19.80;99.90
2639;DHT22;1329;51.384;7.122;2023-07-31T11:55:56;19.90;99.90
2639;DHT22;1329;51.384;7.122;2023-07-31T11:58:24;19.90;99.90
2639;DHT22;1329;51.384;7.122;2023-07-31T12:00:52;19.90;99.90
2639;DHT22;1329;51.384;7.122;2023-07-31T12:03:19;20.00;99.90
2639;DHT22;1329;51.384;7.122;2023-07-31T12:05:47;20.00;99.90
2639;DHT22;1329;51.384;7.122;2023-07-31T12:08:14;20.10;99.90
2639;DHT22;1329;51.384;7.122;2023-07-31T12:10:43;20.10;99.90
2639;DHT22;1329;51.384;7.122;2023-07-31T12:13:12;20.20;99.90
2639;DHT22;1329;51.384;7.122;2023-07-31T12:15:48;20.20;99.90
2639;DHT22;1329;51.384;7.122;2023-07-31T12:18:19;20.20;99.90
2639;DHT22;1329;51.384;7.122;2023-07-31T12:20:48;20.30;99.90
2639;DHT22;1329;51.384;7.122;2023-07-31T12:23:17;20.30;99.90
2639;DHT22;1329;51.384;7.122;2023-07-31T12:26:00;20.30;99.90
2639;DHT22;1329;51.384;7.122;2023-07-31T12:28:27;20.30;99.90
2639;DHT22;1329;51.384;7.122;2023-07-31T12:30:57;20.30;99.90
2639;DHT22;1329;51.384;7.122;2023-07-31T12:33:30;20.30;99.90
2639;DHT22;1329;51.384;7.122;2023-07-31T12:36:00;20.20;99.90
2639;DHT22;1329;51.384;7.122;2023-07-31T12:38:28;20.20;99.90
2639;DHT22;1329;51.384;7.122;2023-07-31T12:40:56;20.20;99.90
2639;DHT22;1329;51.384;7.122;2023-07-31T12:43:23;20.20;99.90
2639;DHT22;1329;51.384;7.122;2023-07-31T12:45:50;20.10;99.90
2639;DHT22;1329;51.384;7.122;2023-07-31T12:48:17;20.10;99.90
2639;DHT22;1329;51.384;7.122;2023-07-31T12:50:44;20.10;99.90
2639;DHT22;1329;51.384;7.122;2023-07-31T12:53:11;20.10;99.90
2639;DHT22;1329;51.384;7.122;2023-07-31T12:55:38;20.10;99.90
2639;DHT22;1329;51.384;7.122;2023-07-31T12:58:07;20.10;99.90
2639;DHT22;1329;51.384;7.122;2023-07-31T13:00:37;20.20;99.90
2639;DHT22;1329;51.384;7.122;2023-07-31T13:03:04;20.20;99.90
2639;DHT22;1329;51.384;7.122;2023-07-31T13:05:31;20.20;99.90
2639;DHT22;1329;51.384;7.122;2023-07-31T13:07:58;20.20;99.90
2639;DHT22;1329;51.384;7.122;2023-07-31T13:10:25;20.20;99.90
2639;DHT22;1329;51.384;7.122;2023-07-31T13:12:52;20.20;99.90
2639;DHT22;1329;51.384;7.122;2023-07-31T13:15:20;20.20;99.90
2639;DHT22;1329;51.384;7.122;2023-07-31T13:17:47;20.20;99.90
2639;DHT22;1329;51.384;7.122;2023-07-31T13:20:14;20.20;99.90
2639;DHT22;1329;51.384;7.122;2023-07-31T13:22:41;20.20;99.90
2639;DHT22;1329;51.384;7.122;2023-07-31T13:25:08;20.10;99.90
2639;DHT22;1329;51.384;7.122;2023-07-31T13:27:36;20.10;99.90
2639;DHT22;1329;51.384;7.122;2023-07-31T13:30:03;20.10;99.90
2639;DHT22;1329;51.384;7.122;2023-07-31T13:32:32;20.10;99.90
2639;DHT22;1329;51.384;7.122;2023-07-31T13:35:04;20.00;99.90
2639;DHT22;1329;51.384;7.122;2023-07-31T13:37:31;20.00;99.90
2639;DHT22;1329;51.384;7.122;2023-07-31T13:39:58;20.00;99.90
2639;DHT22;1329;51.384;7.122;2023-07-31T13:42:25;20.00;99.90
2639;DHT22;1329;51.384;7.122;2023-07-31T13:44:54;20.00;99.90
2639;DHT22;1329;51.384;7.122;2023-07-31T13:47:22;20.00;99.90
2639;DHT22;1329;51.384;7.122;2023-07-31T13:49:50;20.10;99.90
2639;DHT22;1329;51.384;7.122;2023-07-31T13:52:17;20.10;99.90
2639;DHT22;1329;51.384;7.122;2023-07-31T13:54:44;20.10;99.90
2639;DHT22;1329;51.384;7.122;2023-07-31T13:57:11;20.20;99.90
2639;DHT22;1329;51.384;7.122;2023-07-31T13:59:38;20.20;99.90
2639;DHT22;1329;51.384;7.122;2023-07-31T14:02:05;20.30;99.90
2639;DHT22;1329;51.384;7.122;2023-07-31T14:04:32;20.30;99.90
2639;DHT22;1329;51.384;7.122;2023-07-31T14:07:01;20.40;99.90
2639;DHT22;1329;51.384;7.122;2023-07-31T14:09:28;20.40;99.90
2639;DHT22;1329;51.384;7.122;2023-07-31T14:11:58;20.40;99.90
2639;DHT22;1329;51.384;7.122;2023-07-31T14:14:25;20.50;99.90
2639;DHT22;1329;51.384;7.122;2023-07-31T14:16:52;20.50;99.90
2639;DHT22;1329;51.384;7.122;2023-07-31T14:19:22;20.60;99.90
2639;DHT22;1329;51.384;7.122;2023-07-31T14:21:50;20.70;99.90
2639;DHT22;1329;51.384;7.122;2023-07-31T14:24:21;20.80;99.90
2639;DHT22;1329;51.384;7.122;2023-07-31T14:26:51;20.90;99.90
2639;DHT22;1329;51.384;7.122;2023-07-31T14:29:18;21.10;99.90
2639;DHT22;1329;51.384;7.122;2023-07-31T14:31:45;21.10;99.90
2639;DHT22;1329;51.384;7.122;2023-07-31T14:34:12;21.10;99.90
2639;DHT22;1329;51.384;7.122;2023-07-31T14:36:39;21.10;99.90
2639;DHT22;1329;51.384;7.122;2023-07-31T14:39:06;21.10;99.90
2639;DHT22;1329;51.384;7.122;2023-07-31T14:41:34;21.10;99.90
2639;DHT22;1329;51.384;7.122;2023-07-31T14:44:01;21.10;99.90
2639;DHT22;1329;51.384;7.122;2023-07-31T14:46:28;21.10;99.90
2639;DHT22;1329;51.384;7.122;2023-07-31T14:48:55;21.00;99.90
2639;DHT22;1329;51.384;7.122;2023-07-31T14:51:22;21.00;99.90
2639;DHT22;1329;51.384;7.122;2023-07-31T14:53:49;20.90;99.90
2639;DHT22;1329;51.384;7.122;2023-07-31T14:56:16;20.90;99.90
2639;DHT22;1329;51.384;7.122;2023-07-31T14:58:44;20.90;99.90
2639;DHT22;1329;51.384;7.122;2023-07-31T15:01:11;20.80;99.90
2639;DHT22;1329;51.384;7.122;2023-07-31T15:03:38;20.80;99.90
2639;DHT22;1329;51.384;7.122;2023-07-31T15:06:05;20.70;99.90
2639;DHT22;1329;51.384;7.122;2023-07-31T15:08:33;20.70;99.90
2639;DHT22;1329;51.384;7.122;2023-07-31T15:11:01;20.60;99.90
2639;DHT22;1329;51.384;7.122;2023-07-31T15:13:28;20.60;99.90
2639;DHT22;1329;51.384;7.122;2023-07-31T15:15:57;20.60;99.90
2639;DHT22;1329;51.384;7.122;2023-07-31T15:18:24;20.60;99.90
2639;DHT22;1329;51.384;7.122;2023-07-31T15:20:51;20.50;99.90
2639;DHT22;1329;51.384;7.122;2023-07-31T15:23:18;20.50;99.90
2639;DHT22;1329;51.384;7.122;2023-07-31T15:25:45;20.50;99.90
2639;DHT22;1329;51.384;7.122;2023-07-31T15:28:12;20.50;99.90
2639;DHT22;1329;51.384;7.122;2023-07-31T15:30:39;20.50;99.90
2639;DHT22;1329;51.384;7.122;2023-07-31T15:33:08;20.50;99.90
2639;DHT22;1329;51.384;7.122;2023-07-31T15:35:37;20.50;99.90
2639;DHT22;1329;51.384;7.122;2023-07-31T15:38:06;20.50;99.90
2639;DHT22;1329;51.384;7.122;2023-07-31T15:40:33;20.50;99.90
2639;DHT22;1329;51.384;7.122;2023-07-31T15:43:00;20.50;99.90
2639;DHT22;1329;51.384;7.122;2023-07-31T15:45:28;20.50;99.90
2639;DHT22;1329;51.384;7.122;2023-07-31T15:47:56;20.50;99.90
2639;DHT22;1329;51.384;7.122;2023-07-31T15:50:24;20.60;99.90
2639;DHT22;1329;51.384;7.122;2023-07-31T15:52:51;20.60;99.90
2639;DHT22;1329;51.384;7.122;2023-07-31T15:55:18;20.60;99.90
2639;DHT22;1329;51.384;7.122;2023-07-31T15:57:45;20.60;99.90
2639;DHT22;1329;51.384;7.122;2023-07-31T16:00:12;20.60;99.90
2639;DHT22;1329;51.384;7.122;2023-07-31T16:02:39;20.60;99.90
2639;DHT22;1329;51.384;7.122;2023-07-31T16:05:06;20.70;99.90
2639;DHT22;1329;51.384;7.122;2023-07-31T16:07:36;20.70;99.90